首页
METAR-TAF:

METAR-TAF

机场 :

Lemhi County Airport

Salmon, 爱达荷州, 美国

纬度: 45-07N, 经度: 113-53W, 海拔: 1233米

当前天气观测

该预报发布于38分钟前的01:56 UTC
静风
温度 -7°C
湿度 93%
气压 1022 hPa
能見度: 16.1公里
少量云层高于11000英尺

METAR: KSMN 230156Z AUTO 00000KT 10SM FEW110 M07/M08 A3017 RMK AO2 SLP280 T10671083 FZRANO

时间: 19:34 (02:34 UTC)

预报

该预报发布于3小时和14分钟前的23:20 UTC
预报有效从23日的 00点(UTC)到 23日的 24点(UTC)
风速3节,风向多变
能見度: 10公里
阴天层高于7000英尺
附近有阵雨
从 23日的 0600点(UTC)
风速2节,风向多变
能見度: 10公里
散云层高于3500英尺
多云层高于5000英尺
小阵雪

TAF: KSMN 222320Z 2300/2324 VRB03KT P6SM VCSH OVC070 FM230600 VRB02KT P6SM -SHSN SCT035 BKN050

超过4000个机场的气象观测和天气预报(METAR&TAF报告)。

可查询的气象台以黄色和红色小点在地图上表示。

将鼠标移到小点上方,可查看气象台名称。

然后点击查看天气观测和预报。

如需切换地图:点击带黑十字的绿色按钮放大地图;点击带横线的绿色按钮缩小地图;或者点击绿色箭头查看邻近地区的地图。


METAR-TAF: